Emo River Airstrip

AYEO · Northern Province, Papouasie-Nouvelle-Guinée

METAR anciennes AYEO · Emo River Airstrip

Tu vois ci-dessous les METAR des derniers jours. Sélectionne une année pour parcourir les METAR plus anciens, à partir de l'année 2007.

15 avril 2024

Temps Code Temps Temp. Vue Base cloud Vent METAR/SPECI
03:00
V
25 °C 10 km+ - Var Var 3 kt METAR AYPY 141700Z VRB03KT 9999 FEW030 25/24 Q1009
03:00
V
25 °C 10 km+ - Var Var 3 kt METAR AYPY 141700Z VRB03KT 9999 FEW030 25/24 Q1009=
02:00
V
25 °C 10 km+ - Var Var 3 kt METAR AYPY 141600Z VRB03KT 9999 SCT100 25/24 Q1010=
01:00
V
26 °C 10 km+ - Var Var 4 kt METAR AYPY 141500Z VRB04KT 9999 FEW050 SCT080 26/25 Q1011

14 avril 2024

Temps Code Temps Temp. Vue Base cloud Vent METAR/SPECI
20:00
V
27 °C 10 km+ 5.000 ft Var Var 5 kt METAR AYPY 141000Z VRB05KT 9999 SHRA SCT015 BKN050 27/26 Q1012
18:00
V
28 °C 10 km+ - 260° 260° 5 - 10 kt METAR AYPY 140800Z 26005G10KT 9999 FEW020 SCT030 28/25 Q1010=
16:00
V
29 °C 10 km+ - 250° 250° 10 - 15 kt METAR AYPY 140600Z 25010G15KT 9999 FEW015 SCT030 29/25 Q1008
15:00
V
31 °C 10 km+ - 240° 240° 10 - 15 kt METAR AYPY 140500Z 24010G15KT 9999 HZ SCT025 31/25 Q1009
14:00
V
32 °C 10 km+ - 260° 260° 15 - 20 kt METAR AYPY 140400Z 26015G20KT 9999 HZ FEW025 SCT035 32/25 Q1009
13:00
V
32 °C 10 km+ - 240° 240° 10 kt METAR AYPY 140300Z 24010KT 9999 FEW025 SCT040 32/26 Q1009
12:00
V
31 °C 10 km+ - 330° 330° 9 kt METAR AYPY 140200Z 33009KT 9999 FEW025 SCT035 31/25 Q1011
11:00
V
32 °C 10 km+ - 350° 350° 6 kt METAR AYPY 140100Z 35006KT 9999 FEW025 SCT035 32/25 Q1012
10:00
V
30 °C 10 km+ - 310° 310° 8 kt METAR AYPY 140000Z 31008KT 9999 FEW025 SCT035 30/25 Q1012=
09:00
V
28 °C 10 km+ - 340° 340° 8 kt METAR AYPY 132300Z 34008KT 9999 FEW010 SCT035 28/25 Q1012=
08:00
V
28 °C 10 km+ - 350° 350° 12 kt METAR AYPY 132200Z 35012KT 9999 FEW010 SCT040 28/25 Q1011 RMK
07:00
I
25 °C 3 km 500 ft 330° 330° 7 kt METAR AYPY 132100Z 33007KT 3000 FG BKN005 25/25 Q1011 RMK
06:00
I
25 °C 10 km+ 500 ft 330° 330° 7 kt METAR AYPY 132000Z 33007KT 9999 FG BKN005 25/25 Q1010=
05:00
V
25 °C 10 km+ - Var Var 5 kt METAR AYPY 131900Z VRB05KT 9999 SCT100 25/24 Q1010
04:00
V
25 °C 10 km+ - Var Var 3 kt METAR AYPY 131800Z VRB03KT 9999 SCT100 25/24 Q1009=
01:00
V
26 °C 10 km+ 10.000 ft Var Var 3 kt METAR AYPY 131500Z VRB03KT 9999 SCT030 BKN100 26/24 Q1010=
00:00
V
26 °C 10 km+ - Var Var 3 kt METAR AYPY 131400Z VRB03KT 9999 FEW050 26/24 Q1011=

13 avril 2024

Temps Code Temps Temp. Vue Base cloud Vent METAR/SPECI
23:00
V
25 °C 10 km+ - Var Var 3 kt METAR AYPY 131300Z VRB03KT 9999 FEW050 25/24 Q1011
22:00
V
26 °C 10 km+ - Var Var 3 kt METAR AYPY 131200Z VRB03KT 9999 FEW050 26/24 Q1011
21:00
V
27 °C 10 km+ - 120° 120° 5 - 10 kt METAR AYPY 131100Z 12005G10KT 9999 FEW050 27/24 Q1011=
20:00
V
28 °C 10 km+ - 140° 140° 10 - 15 kt METAR AYPY 131000Z 14010G15KT 9999 FEW020 SCT050 28/24 Q1010=
19:00
V
28 °C 10 km+ - 150° 150° 10 - 15 kt METAR AYPY 130900Z 15010G15KT 9999 FEW020 SCT050 28/24 Q1009=
18:00
V
28 °C 10 km+ - 160° 160° 11 kt METAR AYPY 130800Z 16011KT 9999 FEW030 SCT050 28/24 Q1009=
17:00
V
30 °C 10 km+ - 170° 170° 5 - 15 kt METAR AYPY 130700Z 17005G15KT 9999 FEW030 SCT050 30/24 Q1008=
16:00
V
30 °C 10 km+ - 160° 160° 11 kt METAR AYPY 130600Z 16011KT 9999 FEW030 SCT050 30/24 Q1008=
15:00
V
32 °C 10 km+ - 210° 210° 10 kt METAR AYPY 130500Z 21010KT 9999 FEW030 SCT050 32/24 Q1008=
14:00
V
32 °C 10 km+ - 210° 210° 10 kt METAR AYPY 130400Z 21010KT 9999 FEW030 SCT050 32/24 Q1009
13:00
V
32 °C 10 km+ - 200° 200° 10 kt METAR AYPY 130300Z 20010KT 9999 SCT030 32/24 Q1009=
12:00
V
32 °C 10 km+ - 170° 170° 10 kt METAR AYPY 130200Z 17010KT 9999 FEW030 32/23 Q1010=
11:00
V
32 °C 10 km+ - 170° 170° 10 kt METAR AYPY 130100Z 17010KT 9999 FEW030 32/22 Q1011=
10:00
V
31 °C 10 km+ - 300° 300° 5 kt METAR AYPY 130000Z 30005KT 9999 SCT100 31/23 Q1011=
09:00
V
29 °C 10 km+ - 310° 310° 3 kt METAR AYPY 122300Z 31003KT 9999 SCT100 29/24 Q1011=
08:00
V
28 °C 10 km+ - 330° 330° 7 kt METAR AYPY 122200Z 33007KT 9999 HZ SCT100 28/25 Q10101
07:00
V
24 °C 10 km+ - Var Var 3 kt METAR AYPY 122100Z VRB03KT 9999 HZ FEW005 FEW030 SCT100 24/24 Q1010=
04:00
V
24 °C 10 km+ - Var Var 3 kt METAR AYPY 121800Z VRB03KT 9999 FEW050 24/23 Q1009=
03:00
V
24 °C 10 km+ - Var Var 3 kt METAR AYPY 121700Z VRB03KT 9999 FEW090 24/23 Q1009=
02:00
V
25 °C 10 km+ - Var Var 3 kt METAR AYPY 121600Z VRB03KT 9999 FEW050 25/23 Q1009=
01:00
V
25 °C 10 km+ - Var Var 3 kt METAR AYPY 121500Z VRB03KT 9999 SCT060 25/23 Q1010
00:00
V
25 °C 10 km+ - 100° 100° 4 kt METAR AYPY 121400Z 10004KT 9999 SCT060 25/23 Q1010=

12 avril 2024

Temps Code Temps Temp. Vue Base cloud Vent METAR/SPECI
23:00
V
26 °C 10 km+ - 120° 120° 6 kt METAR AYPY 121300Z 12006KT 9999 FEW030 SCT050 26/23 Q1010=
22:00
V
26 °C 10 km+ - 140° 140° 8 kt METAR AYPY 121200Z 14008KT 9999 FEW030 SCT060 26/23 Q1010=
20:00
V
27 °C 10 km+ 9.000 ft 150° 150° 15 - 25 kt METAR AYPY 121000Z 15015G25KT 9999 FEW030 BKN090 27/23 Q1009=
19:00
V
27 °C 10 km+ 9.000 ft 150° 150° 15 - 25 kt METAR AYPY 120900Z 15015G25KT 9999 FEW030 BKN090 27/23 Q1009=
18:00
V
28 °C 10 km+ 9.000 ft 150° 150° 10 - 15 kt METAR AYPY 120800Z 15010G15KT 9999 SCT035 BKN090 28/24 Q1008=
17:00
V
29 °C 10 km+ 9.000 ft 150° 150° 15 - 25 kt METAR AYPY 120700Z 15015G25KT 9999 FEW030 BKN090 29/23 Q1007=
16:00
V
30 °C 10 km+ - 150° 150° 15 - 20 kt METAR AYPY 120600Z 15015G20KT 9999 FEW020 SCT035 30/24 Q1006=
Signaler les modifications